sensor_id;sensor_type;location;lat;lon;timestamp;pressure;altitude;pressure_sealevel;temperature;humidity
61026;BME280;46911;32.650;-16.902;2022-07-12T00:00:49;101436.63;;;19.44;64.84
61026;BME280;46911;32.650;-16.902;2022-07-12T00:02:50;101436.47;;;19.45;65.16
61026;BME280;46911;32.650;-16.902;2022-07-12T00:04:51;101455.41;;;19.55;64.93
61026;BME280;46911;32.650;-16.902;2022-07-12T00:06:52;101453.72;;;19.54;65.37
61026;BME280;46911;32.650;-16.902;2022-07-12T00:08:53;101447.16;;;19.47;65.16
61026;BME280;46911;32.650;-16.902;2022-07-12T00:10:56;101466.25;;;19.55;65.49
61026;BME280;46911;32.650;-16.902;2022-07-12T00:12:57;101469.50;;;19.58;65.69
61026;BME280;46911;32.650;-16.902;2022-07-12T00:14:57;101461.38;;;19.58;65.41
61026;BME280;46911;32.650;-16.902;2022-07-12T00:16:58;101462.09;;;19.61;65.74
61026;BME280;46911;32.650;-16.902;2022-07-12T00:19:00;101467.38;;;19.62;65.86
61026;BME280;46911;32.650;-16.902;2022-07-12T00:21:03;101472.78;;;19.62;65.88
61026;BME280;46911;32.650;-16.902;2022-07-12T00:23:05;101480.59;;;19.65;65.71
61026;BME280;46911;32.650;-16.902;2022-07-12T00:25:10;101466.63;;;19.60;66.22
61026;BME280;46911;32.650;-16.902;2022-07-12T00:27:11;101449.59;;;19.50;65.76
61026;BME280;46911;32.650;-16.902;2022-07-12T00:29:18;101443.44;;;19.48;66.08
61026;BME280;46911;32.650;-16.902;2022-07-12T00:31:22;101444.59;;;19.45;66.27
61026;BME280;46911;32.650;-16.902;2022-07-12T00:33:23;101444.31;;;19.38;66.69
61026;BME280;46911;32.650;-16.902;2022-07-12T00:35:27;101457.69;;;19.40;67.28
61026;BME280;46911;32.650;-16.902;2022-07-12T00:37:28;101454.03;;;19.31;67.41
61026;BME280;46911;32.650;-16.902;2022-07-12T00:39:32;101449.47;;;19.22;68.03
61026;BME280;46911;32.650;-16.902;2022-07-12T00:41:35;101452.31;;;19.20;68.46
61026;BME280;46911;32.650;-16.902;2022-07-12T00:43:38;101459.72;;;19.18;68.42
61026;BME280;46911;32.650;-16.902;2022-07-12T00:45:42;101460.16;;;19.14;68.57
61026;BME280;46911;32.650;-16.902;2022-07-12T00:47:45;101443.22;;;19.02;68.65
61026;BME280;46911;32.650;-16.902;2022-07-12T00:49:47;101451.63;;;19.09;68.82
61026;BME280;46911;32.650;-16.902;2022-07-12T00:51:50;101452.91;;;19.04;68.59
61026;BME280;46911;32.650;-16.902;2022-07-12T00:53:56;101447.91;;;19.10;68.95
61026;BME280;46911;32.650;-16.902;2022-07-12T00:56:00;101411.16;;;18.87;68.35
61026;BME280;46911;32.650;-16.902;2022-07-12T00:58:01;101458.28;;;19.14;68.40
61026;BME280;46911;32.650;-16.902;2022-07-12T01:00:04;101433.81;;;19.06;68.24
61026;BME280;46911;32.650;-16.902;2022-07-12T01:02:07;101399.66;;;18.85;68.30
61026;BME280;46911;32.650;-16.902;2022-07-12T01:04:10;101440.34;;;19.13;67.81
61026;BME280;46911;32.650;-16.902;2022-07-12T01:06:13;101441.22;;;19.14;68.29
61026;BME280;46911;32.650;-16.902;2022-07-12T01:08:17;101424.72;;;19.07;67.95
61026;BME280;46911;32.650;-16.902;2022-07-12T01:10:18;101425.25;;;19.11;67.90
61026;BME280;46911;32.650;-16.902;2022-07-12T01:12:21;101439.34;;;19.24;67.79
61026;BME280;46911;32.650;-16.902;2022-07-12T01:14:28;101423.13;;;19.14;67.46
61026;BME280;46911;32.650;-16.902;2022-07-12T01:16:33;101426.84;;;19.13;67.45
61026;BME280;46911;32.650;-16.902;2022-07-12T01:18:35;101441.34;;;19.22;67.80
61026;BME280;46911;32.650;-16.902;2022-07-12T01:20:36;101440.91;;;19.27;67.31
61026;BME280;46911;32.650;-16.902;2022-07-12T01:22:40;101439.78;;;19.29;67.46
61026;BME280;46911;32.650;-16.902;2022-07-12T01:24:47;101421.44;;;19.23;67.33
61026;BME280;46911;32.650;-16.902;2022-07-12T01:26:49;101416.03;;;19.23;67.04
61026;BME280;46911;32.650;-16.902;2022-07-12T01:28:54;101414.31;;;19.22;66.98
61026;BME280;46911;32.650;-16.902;2022-07-12T01:30:58;101410.03;;;19.19;67.44
61026;BME280;46911;32.650;-16.902;2022-07-12T01:33:02;101432.50;;;19.39;67.33
61026;BME280;46911;32.650;-16.902;2022-07-12T01:35:05;101427.81;;;19.42;67.10
61026;BME280;46911;32.650;-16.902;2022-07-12T01:37:07;101431.38;;;19.42;66.80
61026;BME280;46911;32.650;-16.902;2022-07-12T01:39:07;101415.00;;;19.34;66.86
61026;BME280;46911;32.650;-16.902;2022-07-12T01:41:08;101432.78;;;19.46;67.01
61026;BME280;46911;32.650;-16.902;2022-07-12T01:43:11;101385.84;;;19.18;67.18
61026;BME280;46911;32.650;-16.902;2022-07-12T01:45:12;101432.94;;;19.45;67.23
61026;BME280;46911;32.650;-16.902;2022-07-12T01:47:13;101422.94;;;19.45;67.35
61026;BME280;46911;32.650;-16.902;2022-07-12T01:49:14;101406.91;;;19.34;67.11
61026;BME280;46911;32.650;-16.902;2022-07-12T01:51:15;101371.47;;;19.17;66.77
61026;BME280;46911;32.650;-16.902;2022-07-12T01:53:16;101401.34;;;19.35;66.96
61026;BME280;46911;32.650;-16.902;2022-07-12T01:55:17;101393.38;;;19.34;66.88
61026;BME280;46911;32.650;-16.902;2022-07-12T01:57:19;101398.63;;;19.35;66.50
61026;BME280;46911;32.650;-16.902;2022-07-12T01:59:20;101410.44;;;19.44;66.61
61026;BME280;46911;32.650;-16.902;2022-07-12T02:01:21;101413.28;;;19.43;66.70
61026;BME280;46911;32.650;-16.902;2022-07-12T02:03:22;101385.13;;;19.26;67.12
61026;BME280;46911;32.650;-16.902;2022-07-12T02:05:24;101393.25;;;19.26;67.28
61026;BME280;46911;32.650;-16.902;2022-07-12T02:07:24;101396.06;;;19.24;67.36
61026;BME280;46911;32.650;-16.902;2022-07-12T02:09:28;101404.59;;;19.29;67.46
61026;BME280;46911;32.650;-16.902;2022-07-12T02:11:33;101419.00;;;19.30;67.14
61026;BME280;46911;32.650;-16.902;2022-07-12T02:13:34;101413.44;;;19.31;67.01
61026;BME280;46911;32.650;-16.902;2022-07-12T02:15:36;101391.25;;;19.18;65.22
61026;BME280;46911;32.650;-16.902;2022-07-12T02:17:37;101390.28;;;19.19;64.90
61026;BME280;46911;32.650;-16.902;2022-07-12T02:19:40;101385.13;;;19.16;64.95
61026;BME280;46911;32.650;-16.902;2022-07-12T02:21:43;101404.91;;;19.26;64.97
61026;BME280;46911;32.650;-16.902;2022-07-12T02:23:44;101398.78;;;19.24;64.34
61026;BME280;46911;32.650;-16.902;2022-07-12T02:25:45;101394.81;;;19.18;64.30
61026;BME280;46911;32.650;-16.902;2022-07-12T02:27:46;101380.59;;;19.06;64.45
61026;BME280;46911;32.650;-16.902;2022-07-12T02:29:47;101394.38;;;19.13;64.20
61026;BME280;46911;32.650;-16.902;2022-07-12T02:31:47;101388.56;;;19.08;64.24
61026;BME280;46911;32.650;-16.902;2022-07-12T02:33:48;101386.28;;;19.03;64.25
61026;BME280;46911;32.650;-16.902;2022-07-12T02:35:52;101371.22;;;18.91;64.38
61026;BME280;46911;32.650;-16.902;2022-07-12T02:37:53;101364.09;;;18.90;64.51
61026;BME280;46911;32.650;-16.902;2022-07-12T02:39:53;101390.28;;;18.99;64.38
61026;BME280;46911;32.650;-16.902;2022-07-12T02:42:17;101370.59;;;18.87;64.20
61026;BME280;46911;32.650;-16.902;2022-07-12T02:44:18;101375.75;;;18.90;64.34
61026;BME280;46911;32.650;-16.902;2022-07-12T02:46:19;101377.63;;;18.90;64.62
61026;BME280;46911;32.650;-16.902;2022-07-12T02:48:20;101382.88;;;18.92;64.69
61026;BME280;46911;32.650;-16.902;2022-07-12T02:50:23;101404.22;;;19.04;64.52
61026;BME280;46911;32.650;-16.902;2022-07-12T02:52:26;101391.13;;;19.00;64.56
61026;BME280;46911;32.650;-16.902;2022-07-12T02:54:27;101401.94;;;19.10;64.91
61026;BME280;46911;32.650;-16.902;2022-07-12T02:56:28;101391.28;;;19.08;64.85
61026;BME280;46911;32.650;-16.902;2022-07-12T02:58:28;101398.22;;;19.11;64.74
61026;BME280;46911;32.650;-16.902;2022-07-12T03:00:29;101394.25;;;19.05;64.86
61026;BME280;46911;32.650;-16.902;2022-07-12T03:02:30;101397.97;;;19.14;65.16
61026;BME280;46911;32.650;-16.902;2022-07-12T03:04:36;101397.50;;;19.18;65.42
61026;BME280;46911;32.650;-16.902;2022-07-12T03:06:37;101386.28;;;19.23;65.71
61026;BME280;46911;32.650;-16.902;2022-07-12T03:08:38;101385.25;;;19.24;65.41
61026;BME280;46911;32.650;-16.902;2022-07-12T03:10:41;101394.22;;;19.34;65.32
61026;BME280;46911;32.650;-16.902;2022-07-12T03:12:45;101397.78;;;19.35;65.57
61026;BME280;46911;32.650;-16.902;2022-07-12T03:14:48;101375.88;;;19.28;64.95
61026;BME280;46911;32.650;-16.902;2022-07-12T03:16:49;101374.16;;;19.27;64.73
61026;BME280;46911;32.650;-16.902;2022-07-12T03:18:55;101380.00;;;19.32;64.96
61026;BME280;46911;32.650;-16.902;2022-07-12T03:21:00;101395.34;;;19.42;64.64
61026;BME280;46911;32.650;-16.902;2022-07-12T03:23:01;101392.50;;;19.43;64.82
61026;BME280;46911;32.650;-16.902;2022-07-12T03:25:06;101379.13;;;19.32;64.53
61026;BME280;46911;32.650;-16.902;2022-07-12T03:27:07;101376.00;;;19.36;64.98
61026;BME280;46911;32.650;-16.902;2022-07-12T03:29:13;101396.19;;;19.42;64.84
61026;BME280;46911;32.650;-16.902;2022-07-12T03:31:16;101401.88;;;19.49;65.23
61026;BME280;46911;32.650;-16.902;2022-07-12T03:33:19;101398.19;;;19.50;65.06
61026;BME280;46911;32.650;-16.902;2022-07-12T03:35:20;101394.47;;;19.51;65.24
61026;BME280;46911;32.650;-16.902;2022-07-12T03:37:21;101384.66;;;19.40;65.27
61026;BME280;46911;32.650;-16.902;2022-07-12T03:39:22;101403.47;;;19.42;65.35
61026;BME280;46911;32.650;-16.902;2022-07-12T03:41:23;101411.59;;;19.42;65.43
61026;BME280;46911;32.650;-16.902;2022-07-12T03:43:31;101407.16;;;19.40;65.20
61026;BME280;46911;32.650;-16.902;2022-07-12T03:45:32;101392.50;;;19.33;64.92
61026;BME280;46911;32.650;-16.902;2022-07-12T03:47:33;101393.06;;;19.37;65.15
61026;BME280;46911;32.650;-16.902;2022-07-12T03:49:35;101398.63;;;19.35;65.47
61026;BME280;46911;32.650;-16.902;2022-07-12T03:51:41;101409.28;;;19.47;65.77
61026;BME280;46911;32.650;-16.902;2022-07-12T03:53:42;101407.28;;;19.49;65.74
61026;BME280;46911;32.650;-16.902;2022-07-12T03:55:45;101404.13;;;19.53;65.92
61026;BME280;46911;32.650;-16.902;2022-07-12T03:57:50;101395.03;;;19.54;66.10
61026;BME280;46911;32.650;-16.902;2022-07-12T03:59:52;101383.50;;;19.52;65.98
61026;BME280;46911;32.650;-16.902;2022-07-12T04:01:52;101410.38;;;19.64;65.70
61026;BME280;46911;32.650;-16.902;2022-07-12T04:03:55;101393.19;;;19.55;65.81
61026;BME280;46911;32.650;-16.902;2022-07-12T04:05:59;101398.97;;;19.60;65.40
61026;BME280;46911;32.650;-16.902;2022-07-12T04:07:59;101382.75;;;19.60;65.19
61026;BME280;46911;32.650;-16.902;2022-07-12T04:10:05;101395.28;;;19.61;65.25
61026;BME280;46911;32.650;-16.902;2022-07-12T04:12:09;101407.78;;;19.72;64.84
61026;BME280;46911;32.650;-16.902;2022-07-12T04:14:15;101380.91;;;19.61;64.61
61026;BME280;46911;32.650;-16.902;2022-07-12T04:16:16;101379.03;;;19.61;64.87
61026;BME280;46911;32.650;-16.902;2022-07-12T04:18:16;101394.72;;;19.67;64.68
61026;BME280;46911;32.650;-16.902;2022-07-12T04:20:17;101376.78;;;19.56;64.86
61026;BME280;46911;32.650;-16.902;2022-07-12T04:22:18;101400.13;;;19.67;64.60
61026;BME280;46911;32.650;-16.902;2022-07-12T04:24:19;101403.13;;;19.64;64.63
61026;BME280;46911;32.650;-16.902;2022-07-12T04:26:25;101400.53;;;19.63;64.30
61026;BME280;46911;32.650;-16.902;2022-07-12T04:28:26;101382.47;;;19.53;63.90
61026;BME280;46911;32.650;-16.902;2022-07-12T04:30:29;101395.44;;;19.60;63.45
61026;BME280;46911;32.650;-16.902;2022-07-12T04:32:30;101395.03;;;19.54;63.50
61026;BME280;46911;32.650;-16.902;2022-07-12T04:34:36;101377.69;;;19.47;63.23
61026;BME280;46911;32.650;-16.902;2022-07-12T04:36:36;101383.66;;;19.51;63.22
61026;BME280;46911;32.650;-16.902;2022-07-12T04:38:37;101387.06;;;19.53;62.99
61026;BME280;46911;32.650;-16.902;2022-07-12T04:40:43;101360.31;;;19.40;62.66
61026;BME280;46911;32.650;-16.902;2022-07-12T04:42:43;101366.59;;;19.40;62.67
61026;BME280;46911;32.650;-16.902;2022-07-12T04:44:44;101381.22;;;19.48;62.73
61026;BME280;46911;32.650;-16.902;2022-07-12T04:46:45;101373.72;;;19.42;62.96
61026;BME280;46911;32.650;-16.902;2022-07-12T04:48:46;101369.72;;;19.36;62.78
61026;BME280;46911;32.650;-16.902;2022-07-12T04:50:47;101378.97;;;19.43;62.84
61026;BME280;46911;32.650;-16.902;2022-07-12T04:52:50;101379.25;;;19.40;62.91
61026;BME280;46911;32.650;-16.902;2022-07-12T04:54:53;101392.34;;;19.45;62.99
61026;BME280;46911;32.650;-16.902;2022-07-12T04:56:54;101392.03;;;19.48;62.17
61026;BME280;46911;32.650;-16.902;2022-07-12T04:58:59;101386.47;;;19.49;61.54
61026;BME280;46911;32.650;-16.902;2022-07-12T05:01:02;101385.34;;;19.52;61.57
61026;BME280;46911;32.650;-16.902;2022-07-12T05:03:03;101368.00;;;19.45;61.15
61026;BME280;46911;32.650;-16.902;2022-07-12T05:05:06;101387.63;;;19.56;61.38
61026;BME280;46911;32.650;-16.902;2022-07-12T05:07:10;101369.41;;;19.49;60.87
61026;BME280;46911;32.650;-16.902;2022-07-12T05:09:11;101399.56;;;19.64;60.77
61026;BME280;46911;32.650;-16.902;2022-07-12T05:11:12;101380.50;;;19.55;59.69
61026;BME280;46911;32.650;-16.902;2022-07-12T05:13:13;101388.31;;;19.68;59.94
61026;BME280;46911;32.650;-16.902;2022-07-12T05:15:13;101381.59;;;19.63;59.80
61026;BME280;46911;32.650;-16.902;2022-07-12T05:17:20;101388.56;;;19.75;59.54
61026;BME280;46911;32.650;-16.902;2022-07-12T05:19:21;101382.00;;;19.68;59.09
61026;BME280;46911;32.650;-16.902;2022-07-12T05:21:25;101399.53;;;19.83;58.80
61026;BME280;46911;32.650;-16.902;2022-07-12T05:23:26;101377.16;;;19.71;58.89
61026;BME280;46911;32.650;-16.902;2022-07-12T05:25:27;101398.38;;;19.86;58.29
61026;BME280;46911;32.650;-16.902;2022-07-12T05:27:28;101382.69;;;19.80;58.39
61026;BME280;46911;32.650;-16.902;2022-07-12T05:29:31;101354.84;;;19.60;58.21
61026;BME280;46911;32.650;-16.902;2022-07-12T05:31:32;101399.94;;;19.88;58.47
61026;BME280;46911;32.650;-16.902;2022-07-12T05:33:33;101390.94;;;19.88;58.16
61026;BME280;46911;32.650;-16.902;2022-07-12T05:35:37;101388.94;;;19.90;58.00
61026;BME280;46911;32.650;-16.902;2022-07-12T05:37:41;101392.34;;;19.92;57.43
61026;BME280;46911;32.650;-16.902;2022-07-12T05:39:41;101375.31;;;19.82;57.62
61026;BME280;46911;32.650;-16.902;2022-07-12T05:41:47;101374.69;;;19.88;56.79
61026;BME280;46911;32.650;-16.902;2022-07-12T05:43:48;101391.34;;;19.93;56.98
61026;BME280;46911;32.650;-16.902;2022-07-12T05:45:52;101374.53;;;19.89;56.48
61026;BME280;46911;32.650;-16.902;2022-07-12T05:47:55;101370.16;;;19.88;55.65
61026;BME280;46911;32.650;-16.902;2022-07-12T05:49:56;101393.47;;;19.99;55.79
61026;BME280;46911;32.650;-16.902;2022-07-12T05:52:02;101397.91;;;20.00;55.54
61026;BME280;46911;32.650;-16.902;2022-07-12T05:54:22;101385.63;;;19.96;55.64
61026;BME280;46911;32.650;-16.902;2022-07-12T05:56:23;101383.84;;;19.87;55.51
61026;BME280;46911;32.650;-16.902;2022-07-12T05:58:23;101380.69;;;19.92;55.92
61026;BME280;46911;32.650;-16.902;2022-07-12T06:00:24;101393.47;;;19.99;55.81
61026;BME280;46911;32.650;-16.902;2022-07-12T06:02:25;101399.56;;;20.01;55.72
61026;BME280;46911;32.650;-16.902;2022-07-12T06:04:26;101386.81;;;19.94;55.29
61026;BME280;46911;32.650;-16.902;2022-07-12T06:06:29;101382.38;;;19.93;54.94
61026;BME280;46911;32.650;-16.902;2022-07-12T06:08:32;101385.78;;;19.95;55.03
61026;BME280;46911;32.650;-16.902;2022-07-12T06:10:33;101402.69;;;20.06;54.81
61026;BME280;46911;32.650;-16.902;2022-07-12T06:12:34;101380.94;;;19.98;54.98
61026;BME280;46911;32.650;-16.902;2022-07-12T06:14:37;101390.78;;;19.99;54.57
61026;BME280;46911;32.650;-16.902;2022-07-12T06:16:38;101394.88;;;20.03;54.66
61026;BME280;46911;32.650;-16.902;2022-07-12T06:18:41;101413.63;;;20.15;54.29
61026;BME280;46911;32.650;-16.902;2022-07-12T06:20:41;101411.22;;;20.12;54.82
61026;BME280;46911;32.650;-16.902;2022-07-12T06:22:42;101393.41;;;20.09;54.32
61026;BME280;46911;32.650;-16.902;2022-07-12T06:24:48;101400.22;;;20.13;54.60
61026;BME280;46911;32.650;-16.902;2022-07-12T06:26:49;101406.63;;;20.22;54.57
61026;BME280;46911;32.650;-16.902;2022-07-12T06:28:52;101403.03;;;20.21;54.60
61026;BME280;46911;32.650;-16.902;2022-07-12T06:30:53;101398.50;;;20.22;54.23
61026;BME280;46911;32.650;-16.902;2022-07-12T06:32:53;101386.84;;;20.12;54.53
61026;BME280;46911;32.650;-16.902;2022-07-12T06:34:54;101387.56;;;20.14;54.47
61026;BME280;46911;32.650;-16.902;2022-07-12T06:37:00;101386.25;;;20.18;54.65
61026;BME280;46911;32.650;-16.902;2022-07-12T06:39:03;101396.47;;;20.24;54.27
61026;BME280;46911;32.650;-16.902;2022-07-12T06:41:07;101389.06;;;20.26;54.70
61026;BME280;46911;32.650;-16.902;2022-07-12T06:43:09;101389.47;;;20.31;54.54
61026;BME280;46911;32.650;-16.902;2022-07-12T06:45:13;101397.59;;;20.31;54.16
61026;BME280;46911;32.650;-16.902;2022-07-12T06:47:14;101408.75;;;20.46;54.43
61026;BME280;46911;32.650;-16.902;2022-07-12T06:49:15;101403.56;;;20.53;53.96
61026;BME280;46911;32.650;-16.902;2022-07-12T06:51:16;101398.31;;;20.51;54.00
61026;BME280;46911;32.650;-16.902;2022-07-12T06:53:16;101407.75;;;20.65;53.83
61026;BME280;46911;32.650;-16.902;2022-07-12T06:55:17;101411.19;;;20.67;53.60
61026;BME280;46911;32.650;-16.902;2022-07-12T06:57:20;101401.66;;;20.63;53.22
61026;BME280;46911;32.650;-16.902;2022-07-12T06:59:21;101396.75;;;20.67;53.39
61026;BME280;46911;32.650;-16.902;2022-07-12T07:01:27;101395.19;;;20.74;52.76
61026;BME280;46911;32.650;-16.902;2022-07-12T07:03:30;101390.44;;;20.76;52.98
61026;BME280;46911;32.650;-16.902;2022-07-12T07:05:30;101396.97;;;20.83;52.75
61026;BME280;46911;32.650;-16.902;2022-07-12T07:07:38;101411.81;;;20.97;52.93
61026;BME280;46911;32.650;-16.902;2022-07-12T07:09:39;101406.47;;;21.05;52.46
61026;BME280;46911;32.650;-16.902;2022-07-12T07:11:40;101412.44;;;21.09;52.62
61026;BME280;46911;32.650;-16.902;2022-07-12T07:13:43;101409.25;;;21.14;52.59
61026;BME280;46911;32.650;-16.902;2022-07-12T07:15:47;101397.72;;;21.12;52.26
61026;BME280;46911;32.650;-16.902;2022-07-12T07:17:50;101405.91;;;21.20;52.04
61026;BME280;46911;32.650;-16.902;2022-07-12T07:19:51;101421.97;;;21.31;51.90
61026;BME280;46911;32.650;-16.902;2022-07-12T07:21:57;101427.44;;;21.39;51.65
61026;BME280;46911;32.650;-16.902;2022-07-12T07:23:59;101424.41;;;21.43;51.90
61026;BME280;46911;32.650;-16.902;2022-07-12T07:26:00;101404.69;;;21.40;51.41
61026;BME280;46911;32.650;-16.902;2022-07-12T07:28:04;101406.03;;;21.54;50.92
61026;BME280;46911;32.650;-16.902;2022-07-12T07:30:06;101415.44;;;21.68;50.67
61026;BME280;46911;32.650;-16.902;2022-07-12T07:32:25;101404.41;;;21.70;50.50
61026;BME280;46911;32.650;-16.902;2022-07-12T07:34:26;101426.09;;;21.88;50.54
61026;BME280;46911;32.650;-16.902;2022-07-12T07:36:27;101423.22;;;21.98;50.13
61026;BME280;46911;32.650;-16.902;2022-07-12T07:38:30;101431.28;;;22.07;50.10
61026;BME280;46911;32.650;-16.902;2022-07-12T07:40:33;101427.22;;;22.12;49.53
61026;BME280;46911;32.650;-16.902;2022-07-12T07:42:37;101418.03;;;22.13;49.12
61026;BME280;46911;32.650;-16.902;2022-07-12T07:44:38;101421.13;;;22.18;49.33
61026;BME280;46911;32.650;-16.902;2022-07-12T07:46:39;101438.16;;;22.28;49.43
61026;BME280;46911;32.650;-16.902;2022-07-12T07:48:40;101427.09;;;22.21;49.45
61026;BME280;46911;32.650;-16.902;2022-07-12T07:50:41;101427.09;;;22.21;49.44
61026;BME280;46911;32.650;-16.902;2022-07-12T07:52:42;101448.00;;;22.29;49.22
61026;BME280;46911;32.650;-16.902;2022-07-12T07:54:43;101441.50;;;22.22;48.97
61026;BME280;46911;32.650;-16.902;2022-07-12T07:56:43;101448.66;;;22.23;48.98
61026;BME280;46911;32.650;-16.902;2022-07-12T07:58:44;101447.66;;;22.24;49.01
61026;BME280;46911;32.650;-16.902;2022-07-12T08:00:49;101452.38;;;22.22;48.97
61026;BME280;46911;32.650;-16.902;2022-07-12T08:02:54;101448.34;;;22.26;49.05
61026;BME280;46911;32.650;-16.902;2022-07-12T08:04:58;101451.09;;;22.34;48.86
61026;BME280;46911;32.650;-16.902;2022-07-12T08:07:01;101454.88;;;22.42;48.96
61026;BME280;46911;32.650;-16.902;2022-07-12T08:09:04;101452.88;;;22.52;49.12
61026;BME280;46911;32.650;-16.902;2022-07-12T08:11:06;101456.16;;;22.64;48.16
61026;BME280;46911;32.650;-16.902;2022-07-12T08:13:06;101456.50;;;22.69;48.32
61026;BME280;46911;32.650;-16.902;2022-07-12T08:15:08;101461.63;;;22.80;48.13
61026;BME280;46911;32.650;-16.902;2022-07-12T08:17:09;101452.28;;;22.91;47.51
61026;BME280;46911;32.650;-16.902;2022-07-12T08:19:10;101453.81;;;23.02;47.57
61026;BME280;46911;32.650;-16.902;2022-07-12T08:21:13;101457.09;;;23.14;46.89
61026;BME280;46911;32.650;-16.902;2022-07-12T08:23:14;101454.38;;;23.22;47.10
61026;BME280;46911;32.650;-16.902;2022-07-12T08:25:15;101457.09;;;23.14;47.05
61026;BME280;46911;32.650;-16.902;2022-07-12T08:27:18;101450.47;;;23.16;47.29
61026;BME280;46911;32.650;-16.902;2022-07-12T08:29:26;101470.22;;;23.27;46.49
61026;BME280;46911;32.650;-16.902;2022-07-12T08:31:27;101447.03;;;23.14;46.56
61026;BME280;46911;32.650;-16.902;2022-07-12T08:33:28;101455.06;;;23.16;46.42
61026;BME280;46911;32.650;-16.902;2022-07-12T08:35:29;101447.53;;;23.01;46.91
61026;BME280;46911;32.650;-16.902;2022-07-12T08:37:33;101461.19;;;23.18;48.28
61026;BME280;46911;32.650;-16.902;2022-07-12T08:39:36;101469.88;;;23.21;49.13
61026;BME280;46911;32.650;-16.902;2022-07-12T08:41:36;101465.41;;;22.96;50.87
61026;BME280;46911;32.650;-16.902;2022-07-12T08:43:37;101455.16;;;22.81;50.74
61026;BME280;46911;32.650;-16.902;2022-07-12T08:45:40;101453.16;;;23.00;51.11
61026;BME280;46911;32.650;-16.902;2022-07-12T08:47:47;101468.88;;;22.63;52.31
61026;BME280;46911;32.650;-16.902;2022-07-12T08:50:13;101472.66;;;22.70;52.50
61026;BME280;46911;32.650;-16.902;2022-07-12T08:52:32;101461.78;;;22.70;53.11
61026;BME280;46911;32.650;-16.902;2022-07-12T08:54:39;101456.53;;;22.77;53.12
61026;BME280;46911;32.650;-16.902;2022-07-12T08:56:41;101451.94;;;22.86;52.97
61026;BME280;46911;32.650;-16.902;2022-07-12T08:58:44;101461.50;;;22.98;53.43
61026;BME280;46911;32.650;-16.902;2022-07-12T09:00:47;101464.78;;;23.18;52.30
61026;BME280;46911;32.650;-16.902;2022-07-12T09:02:53;101447.38;;;23.03;52.25
61026;BME280;46911;32.650;-16.902;2022-07-12T09:05:10;101472.22;;;23.08;52.47
61026;BME280;46911;32.650;-16.902;2022-07-12T09:07:14;101456.72;;;23.00;52.77
61026;BME280;46911;32.650;-16.902;2022-07-12T09:09:31;101468.66;;;23.40;52.13
61026;BME280;46911;32.650;-16.902;2022-07-12T09:11:37;101465.78;;;23.34;52.56
61026;BME280;46911;32.650;-16.902;2022-07-12T09:13:55;101470.72;;;23.38;52.77
61026;BME280;46911;32.650;-16.902;2022-07-12T09:16:12;101469.00;;;23.54;52.38
61026;BME280;46911;32.650;-16.902;2022-07-12T09:18:16;101468.16;;;23.53;52.09
61026;BME280;46911;32.650;-16.902;2022-07-12T09:20:18;101449.41;;;23.67;52.10
61026;BME280;46911;32.650;-16.902;2022-07-12T09:22:19;101460.69;;;23.39;52.62
61026;BME280;46911;32.650;-16.902;2022-07-12T09:24:24;101477.00;;;23.39;52.32
61026;BME280;46911;32.650;-16.902;2022-07-12T09:26:32;101470.72;;;23.38;52.87
61026;BME280;46911;32.650;-16.902;2022-07-12T09:28:35;101460.97;;;23.03;54.17
61026;BME280;46911;32.650;-16.902;2022-07-12T09:30:50;101477.50;;;23.67;52.64
61026;BME280;46911;32.650;-16.902;2022-07-12T09:35:16;101457.38;;;23.77;51.89
61026;BME280;46911;32.650;-16.902;2022-07-12T09:37:39;101478.50;;;23.83;52.23
61026;BME280;46911;32.650;-16.902;2022-07-12T09:39:44;101476.44;;;24.01;51.37
61026;BME280;46911;32.650;-16.902;2022-07-12T09:41:47;101464.78;;;24.24;50.89
61026;BME280;46911;32.650;-16.902;2022-07-12T09:43:52;101477.59;;;24.55;50.17
61026;BME280;46911;32.650;-16.902;2022-07-12T09:45:54;101465.19;;;24.04;51.62
61026;BME280;46911;32.650;-16.902;2022-07-12T09:48:00;101457.81;;;24.53;50.94
61026;BME280;46911;32.650;-16.902;2022-07-12T09:50:08;101455.13;;;24.45;49.68
61026;BME280;46911;32.650;-16.902;2022-07-12T09:52:32;101470.06;;;24.57;48.20
61026;BME280;46911;32.650;-16.902;2022-07-12T09:54:34;101472.75;;;24.73;48.01
61026;BME280;46911;32.650;-16.902;2022-07-12T09:56:43;101477.94;;;24.12;50.06
61026;BME280;46911;32.650;-16.902;2022-07-12T09:58:55;101478.81;;;24.04;50.70
61026;BME280;46911;32.650;-16.902;2022-07-12T10:01:01;101486.50;;;23.84;50.64
61026;BME280;46911;32.650;-16.902;2022-07-12T10:03:07;101460.47;;;23.49;49.17
61026;BME280;46911;32.650;-16.902;2022-07-12T10:05:10;101477.69;;;23.41;50.92
61026;BME280;46911;32.650;-16.902;2022-07-12T10:07:17;101479.22;;;23.19;52.62
61026;BME280;46911;32.650;-16.902;2022-07-12T10:09:18;101464.56;;;23.45;51.11
61026;BME280;46911;32.650;-16.902;2022-07-12T10:11:19;101472.56;;;23.71;50.63
61026;BME280;46911;32.650;-16.902;2022-07-12T10:13:20;101468.84;;;23.64;49.89
61026;BME280;46911;32.650;-16.902;2022-07-12T10:15:28;101433.25;;;23.49;51.68
61026;BME280;46911;32.650;-16.902;2022-07-12T10:17:40;101462.50;;;23.63;52.32
61026;BME280;46911;32.650;-16.902;2022-07-12T10:19:45;101453.41;;;24.12;49.68
61026;BME280;46911;32.650;-16.902;2022-07-12T10:21:52;101459.88;;;24.11;48.04
61026;BME280;46911;32.650;-16.902;2022-07-12T10:23:55;101446.59;;;24.16;47.89
61026;BME280;46911;32.650;-16.902;2022-07-12T10:25:58;101469.31;;;24.40;47.48
61026;BME280;46911;32.650;-16.902;2022-07-12T10:28:02;101480.81;;;24.67;46.35
61026;BME280;46911;32.650;-16.902;2022-07-12T10:30:16;101463.72;;;24.33;46.48